首页
METAR-TAF:

METAR-TAF

机场 :

Chièvres, 比利时

纬度: 50-34N, 经度: 003-50E, 海拔: 60米

当前天气观测

该预报发布于29分钟前的14:55 UTC
风速4节,风向南转西南
温度 25°C
湿度 50%
气压 1018 hPa
能见度10公里或以上

METAR: EBCV 171455Z AUTO 21004KT 9999 FEW003/// 25/14 Q1018 BLU

时间: 17:24 (15:24 UTC)

预报

该预报发布于3小时和43分钟前的11:41 UTC
预报有效从17日的 13点(UTC)到 17日的 22点(UTC)
风速6节,风向南转西南
能见度10公里或以上
少量云层高于4000英尺
散云层高于5500英尺
短暂存在
从 17日的 13点(UTC)到 17日的 16点(UTC)
多云层高于5000英尺
成为
从 17日的 16点(UTC)到 17日的 18点(UTC)
风速4节,风向北转西北
少量云层高于5000英尺
散云层高于25000英尺

TAF: EBCV 171141Z 1713/1722 20006KT 9999 FEW040 SCT055 TEMPO 1713/1716 BKN050 BECMG 1716/1718 34004KT FEW050 SCT250 BY EBWM

超过4000个机场的气象观测和天气预报(METAR&TAF报告)。

可查询的气象台以黄色和红色小点在地图上表示。

将鼠标移到小点上方,可查看气象台名称。

然后点击查看天气观测和预报。

如需切换地图:点击带黑十字的绿色按钮放大地图;点击带横线的绿色按钮缩小地图;或者点击绿色箭头查看邻近地区的地图。


METAR-TAF: